Time;durP1;ratioP1;P1;durP2;ratioP2;P2;SDS_P1;SDS_P2;PMS_P1;PMS_P2;Temp;Humidity;BMP_temperature;BMP_pressure;BME280_temperature;BME280_humidity;BME280_pressure;Samples;Min_cycle;Max_cycle;Signal;HPM_P1;HPM_P2
2020/12/25 00:00:43;;;;;;;42.63;26.00;;;19.80;56.50;;;;;;5041159;28;20643;-63
2020/12/25 00:03:14;;;;;;;43.17;26.15;;;19.70;56.60;;;;;;5029565;28;20039;-64
2020/12/25 00:05:40;;;;;;;43.72;25.42;;;19.70;56.60;;;;;;5030128;28;20030;-64
2020/12/25 00:08:06;;;;;;;38.75;24.90;;;19.70;56.70;;;;;;5033561;28;20044;-64
2020/12/25 00:10:31;;;;;;;43.33;24.92;;;19.70;56.70;;;;;;5031021;28;20038;-64
2020/12/25 00:12:57;;;;;;;36.60;25.00;;;19.70;56.70;;;;;;5027478;28;20479;-65
2020/12/25 00:15:22;;;;;;;37.60;24.23;;;19.70;56.70;;;;;;5028824;28;20072;-64
2020/12/25 00:17:48;;;;;;;37.33;22.73;;;19.70;56.70;;;;;;5046202;28;20491;-64
2020/12/25 00:20:13;;;;;;;32.53;22.67;;;19.70;56.70;;;;;;5034092;28;20034;-64
2020/12/25 00:22:39;;;;;;;34.90;22.67;;;19.70;56.60;;;;;;5038407;28;20090;-64
2020/12/25 00:25:04;;;;;;;34.85;22.13;;;19.80;56.60;;;;;;5040084;28;20500;-64
2020/12/25 00:27:30;;;;;;;35.08;21.35;;;19.80;56.60;;;;;;5029183;28;20120;-65
2020/12/25 00:29:55;;;;;;;33.70;20.90;;;19.80;56.60;;;;;;5037126;28;20124;-64
2020/12/25 00:32:21;;;;;;;29.75;20.30;;;19.80;56.60;;;;;;5027563;28;20033;-64
2020/12/25 00:34:46;;;;;;;33.50;21.20;;;19.80;56.50;;;;;;5036008;28;20412;-64
2020/12/25 00:37:12;;;;;;;30.20;19.60;;;19.80;56.50;;;;;;5039126;28;20045;-64
2020/12/25 00:39:39;;;;;;;29.88;20.10;;;19.80;56.40;;;;;;5034404;28;20416;-64
2020/12/25 00:42:04;;;;;;;27.05;18.90;;;19.70;56.40;;;;;;5033120;28;20029;-65
2020/12/25 00:44:30;;;;;;;29.00;18.35;;;19.80;56.40;;;;;;5041763;28;20617;-64
2020/12/25 00:46:55;;;;;;;27.35;17.60;;;19.80;56.40;;;;;;5032698;28;20045;-64
2020/12/25 00:49:21;;;;;;;27.52;17.83;;;19.80;56.30;;;;;;5032849;28;20041;-64
2020/12/25 00:51:49;;;;;;;27.73;17.40;;;19.70;56.20;;;;;;5034496;28;20389;-64
2020/12/25 00:54:15;;;;;;;26.75;16.65;;;19.80;56.20;;;;;;5038273;28;20040;-64
2020/12/25 00:56:40;;;;;;;25.10;16.10;;;19.80;56.20;;;;;;5028925;28;20041;-64
2020/12/25 00:59:06;;;;;;;27.35;16.27;;;19.80;56.10;;;;;;5042860;28;20029;-65
2020/12/25 01:01:31;;;;;;;22.40;15.77;;;19.80;56.10;;;;;;5034965;28;20052;-64
2020/12/25 01:03:57;;;;;;;23.05;14.43;;;19.80;56.10;;;;;;5028501;28;20041;-64
2020/12/25 01:06:22;;;;;;;21.67;13.15;;;19.80;56.20;;;;;;5025860;28;20164;-64
2020/12/25 01:08:49;;;;;;;22.30;14.27;;;19.80;56.20;;;;;;5029822;28;20068;-64
2020/12/25 01:11:14;;;;;;;23.13;15.00;;;19.80;56.10;;;;;;5029130;28;20407;-63
2020/12/25 01:13:40;;;;;;;18.60;13.70;;;19.80;56.10;;;;;;5028736;28;20049;-63
2020/12/25 01:16:07;;;;;;;22.63;14.85;;;19.80;56.10;;;;;;5036799;28;20507;-64
2020/12/25 01:18:33;;;;;;;22.27;13.48;;;19.80;56.00;;;;;;5036234;28;20041;-63
2020/12/25 01:20:58;;;;;;;19.02;13.30;;;19.80;56.00;;;;;;5035326;28;20052;-63
2020/12/25 01:23:24;;;;;;;20.33;11.95;;;19.80;55.90;;;;;;5040048;28;20039;-63
2020/12/25 01:25:49;;;;;;;22.00;13.13;;;19.80;55.80;;;;;;5025345;28;20455;-64
2020/12/25 01:28:15;;;;;;;18.15;12.30;;;19.80;55.70;;;;;;5033089;28;20488;-63
2020/12/25 01:30:41;;;;;;;19.33;12.90;;;19.80;55.60;;;;;;5025073;28;20064;-63
2020/12/25 01:33:06;;;;;;;18.25;12.02;;;19.90;55.50;;;;;;5024271;28;20527;-64
2020/12/25 01:35:32;;;;;;;19.17;11.95;;;19.90;55.50;;;;;;5027094;28;20163;-63
2020/12/25 01:37:57;;;;;;;18.33;11.00;;;19.90;56.00;;;;;;5043414;28;20025;-63
2020/12/25 01:40:23;;;;;;;22.15;11.98;;;19.90;55.30;;;;;;5031790;28;20033;-63
2020/12/25 01:42:48;;;;;;;23.98;12.63;;;19.90;55.30;;;;;;5041166;28;20033;-63
2020/12/25 01:45:13;;;;;;;16.27;11.40;;;19.90;55.20;;;;;;5032812;28;20026;-63
2020/12/25 01:47:39;;;;;;;16.67;10.82;;;19.90;55.70;;;;;;5029793;28;20025;-63
2020/12/25 01:50:04;;;;;;;16.52;10.52;;;19.90;55.10;;;;;;5034782;28;20064;-63
2020/12/25 01:52:30;;;;;;;15.43;10.23;;;19.90;55.00;;;;;;4996287;28;20030;-63
2020/12/25 01:54:56;;;;;;;18.08;9.63;;;19.90;55.00;;;;;;5041286;28;20048;-63
2020/12/25 01:57:21;;;;;;;13.73;9.82;;;19.90;54.90;;;;;;5034673;28;20037;-63
2020/12/25 01:59:47;;;;;;;16.35;9.23;;;19.90;54.80;;;;;;5030319;28;20071;-63
2020/12/25 02:02:12;;;;;;;14.38;9.55;;;19.90;54.80;;;;;;5032463;28;20433;-63
2020/12/25 02:04:38;;;;;;;12.95;8.43;;;19.90;54.70;;;;;;5026633;28;20043;-62
2020/12/25 02:07:03;;;;;;;12.90;8.93;;;19.90;54.70;;;;;;5025494;28;20041;-62
2020/12/25 02:09:29;;;;;;;13.65;9.20;;;19.90;54.60;;;;;;5039864;28;20037;-61
2020/12/25 02:11:54;;;;;;;12.57;8.65;;;19.80;54.50;;;;;;5030033;28;20044;-62
2020/12/25 02:14:20;;;;;;;12.15;8.15;;;19.80;54.50;;;;;;5030608;28;20120;-62
2020/12/25 02:16:45;;;;;;;12.30;7.93;;;19.80;54.40;;;;;;5010187;28;20039;-62
2020/12/25 02:19:11;;;;;;;10.82;7.53;;;19.80;54.30;;;;;;5040895;28;20032;-62
2020/12/25 02:21:36;;;;;;;12.77;7.72;;;19.80;54.30;;;;;;5030518;28;20036;-62
2020/12/25 02:24:03;;;;;;;11.30;7.28;;;19.80;54.30;;;;;;5032246;28;20037;-61
2020/12/25 02:26:29;;;;;;;10.57;7.32;;;19.70;54.20;;;;;;5043028;28;20512;-61
2020/12/25 02:28:54;;;;;;;10.70;7.35;;;19.80;54.30;;;;;;5035743;28;20045;-61
2020/12/25 02:31:20;;;;;;;9.05;7.10;;;19.70;54.20;;;;;;5035730;28;20026;-61
2020/12/25 02:33:45;;;;;;;9.68;6.82;;;19.70;54.20;;;;;;5042770;28;20712;-62
2020/12/25 02:36:11;;;;;;;9.13;6.70;;;19.70;54.30;;;;;;5024477;28;20045;-62
2020/12/25 02:38:36;;;;;;;8.90;6.70;;;19.70;54.30;;;;;;5037382;28;20025;-62
2020/12/25 02:41:02;;;;;;;10.07;6.32;;;19.60;54.30;;;;;;5033997;28;20035;-62
2020/12/25 02:43:27;;;;;;;10.00;6.00;;;19.60;54.40;;;;;;5042488;28;20029;-62
2020/12/25 02:45:52;;;;;;;8.52;5.95;;;19.60;54.40;;;;;;5034291;28;20033;-61
2020/12/25 02:48:18;;;;;;;9.15;6.60;;;19.60;54.40;;;;;;5039512;28;20056;-62
2020/12/25 02:50:43;;;;;;;8.52;5.93;;;19.60;54.40;;;;;;5042548;28;20056;-61
2020/12/25 02:53:09;;;;;;;7.38;5.53;;;19.50;54.40;;;;;;5026249;28;20451;-61
2020/12/25 02:55:34;;;;;;;7.72;5.45;;;19.50;54.40;;;;;;5035123;28;20037;-61
2020/12/25 02:58:00;;;;;;;8.05;5.13;;;19.50;54.30;;;;;;5030972;28;20116;-61
2020/12/25 03:00:25;;;;;;;7.35;5.07;;;19.50;54.30;;;;;;5029361;28;20412;-62
2020/12/25 03:02:51;;;;;;;7.63;5.82;;;19.40;54.30;;;;;;5028712;28;20045;-62
2020/12/25 03:05:16;;;;;;;7.15;5.47;;;19.50;54.40;;;;;;5043548;28;20037;-62
2020/12/25 03:07:42;;;;;;;7.53;4.93;;;19.40;54.30;;;;;;5028079;28;20084;-62
2020/12/25 03:10:07;;;;;;;10.02;5.57;;;19.40;54.30;;;;;;5031562;28;21239;-62
2020/12/25 03:12:33;;;;;;;7.15;4.95;;;19.40;54.30;;;;;;5027092;28;20052;-62
2020/12/25 03:14:58;;;;;;;6.13;4.82;;;19.40;55.00;;;;;;5043319;28;20029;-62
2020/12/25 03:17:24;;;;;;;8.55;5.15;;;19.40;54.40;;;;;;5026996;28;20110;-61
2020/12/25 03:19:49;;;;;;;6.75;4.70;;;19.30;54.50;;;;;;5025231;28;20037;-61
2020/12/25 03:22:15;;;;;;;5.10;4.60;;;19.40;54.50;;;;;;5033181;28;20045;-62
2020/12/25 03:24:40;;;;;;;9.57;5.35;;;19.40;54.40;;;;;;5037985;28;20057;-62
2020/12/25 03:27:06;;;;;;;7.07;4.85;;;19.40;54.40;;;;;;5024417;28;20120;-62
2020/12/25 03:29:31;;;;;;;4.95;4.25;;;19.40;54.40;;;;;;5031662;28;20091;-62
2020/12/25 03:31:57;;;;;;;6.05;4.18;;;19.40;54.50;;;;;;5036530;28;20029;-62
2020/12/25 03:34:22;;;;;;;6.80;5.00;;;19.40;54.70;;;;;;5038173;28;20092;-62
2020/12/25 03:36:48;;;;;;;5.68;4.55;;;19.40;54.80;;;;;;5031203;28;20415;-62
2020/12/25 03:39:13;;;;;;;5.07;4.13;;;19.40;54.50;;;;;;5034260;28;20120;-62
2020/12/25 03:41:39;;;;;;;6.35;4.63;;;19.40;54.50;;;;;;5034223;28;20120;-62
2020/12/25 03:44:04;;;;;;;7.25;4.63;;;19.40;54.40;;;;;;5037483;28;21552;-62
2020/12/25 03:46:34;;;;;;;6.18;4.03;;;19.40;54.40;;;;;;5027423;28;20588;-62
2020/12/25 03:48:59;;;;;;;5.03;3.70;;;19.40;55.00;;;;;;5040025;28;20051;-62
2020/12/25 03:51:25;;;;;;;4.70;3.47;;;19.40;54.40;;;;;;5040587;28;20021;-62
2020/12/25 03:53:50;;;;;;;5.15;4.07;;;19.40;54.30;;;;;;5033969;28;20038;-62
2020/12/25 03:56:16;;;;;;;4.03;3.05;;;19.40;54.30;;;;;;5034218;28;20033;-62
2020/12/25 03:58:41;;;;;;;5.13;3.97;;;19.40;54.30;;;;;;5042956;28;20044;-61
2020/12/25 04:01:07;;;;;;;6.20;3.90;;;19.50;54.30;;;;;;5028448;28;20045;-61
2020/12/25 04:03:32;;;;;;;7.40;3.30;;;19.50;54.30;;;;;;5039855;28;20385;-62
2020/12/25 04:05:58;;;;;;;5.07;3.70;;;19.50;54.20;;;;;;5033034;28;20057;-62
2020/12/25 04:08:23;;;;;;;4.70;3.00;;;19.50;54.10;;;;;;5034289;28;20029;-62
2020/12/25 04:10:49;;;;;;;4.15;2.95;;;19.50;54.10;;;;;;5030734;28;20025;-62
2020/12/25 04:13:14;;;;;;;5.20;3.08;;;19.50;54.10;;;;;;5046683;28;20029;-62
2020/12/25 04:15:40;;;;;;;4.68;3.67;;;19.50;54.10;;;;;;5044851;28;20052;-62
2020/12/25 04:18:05;;;;;;;5.03;3.53;;;19.50;54.00;;;;;;5033373;28;20116;-62
2020/12/25 04:20:31;;;;;;;4.03;3.38;;;19.50;54.00;;;;;;5038206;28;20086;-61
2020/12/25 04:22:56;;;;;;;5.10;2.50;;;19.50;54.00;;;;;;5033918;28;20045;-62
2020/12/25 04:25:22;;;;;;;3.10;2.55;;;19.50;53.90;;;;;;5044672;28;20033;-62
2020/12/25 04:27:47;;;;;;;4.90;3.05;;;19.50;53.90;;;;;;5030138;28;20095;-62
2020/12/25 04:30:13;;;;;;;4.90;3.05;;;19.50;53.90;;;;;;5041229;28;20036;-62
2020/12/25 04:32:38;;;;;;;4.28;2.60;;;19.50;53.80;;;;;;5035534;28;21898;-63
2020/12/25 04:35:04;;;;;;;3.85;3.00;;;19.50;53.90;;;;;;5032065;28;20033;-62
2020/12/25 04:37:30;;;;;;;2.95;2.40;;;19.50;53.80;;;;;;5043351;28;20049;-62
2020/12/25 04:39:55;;;;;;;3.67;2.58;;;19.50;53.80;;;;;;5028512;28;20097;-62
2020/12/25 04:42:24;;;;;;;4.00;2.92;;;19.50;53.80;;;;;;5032815;28;20085;-62
2020/12/25 04:44:49;;;;;;;2.85;2.25;;;19.50;53.80;;;;;;5039503;28;20318;-62
2020/12/25 04:47:15;;;;;;;3.60;2.47;;;19.50;53.80;;;;;;5050849;28;20059;-61
2020/12/25 04:49:40;;;;;;;3.55;2.55;;;19.50;53.80;;;;;;5052931;28;20033;-63
2020/12/25 04:52:06;;;;;;;3.85;2.35;;;19.50;53.70;;;;;;5036486;28;20095;-63
2020/12/25 04:54:31;;;;;;;3.42;2.00;;;19.50;53.70;;;;;;5055132;28;20037;-62
2020/12/25 04:56:58;;;;;;;2.47;2.22;;;19.50;53.80;;;;;;5043818;28;20052;-62
2020/12/25 04:59:25;;;;;;;2.83;2.30;;;19.50;53.70;;;;;;5036161;28;20200;-62
2020/12/25 05:01:52;;;;;;;3.35;2.47;;;19.50;53.80;;;;;;5038359;28;20033;-63
2020/12/25 05:04:19;;;;;;;3.20;2.70;;;19.50;53.70;;;;;;5044639;28;20040;-62
2020/12/25 05:06:46;;;;;;;3.17;2.53;;;19.40;53.70;;;;;;5024630;28;20048;-63
2020/12/25 05:09:15;;;;;;;2.35;2.13;;;19.40;53.70;;;;;;5040381;28;20148;-62
2020/12/25 05:11:40;;;;;;;2.30;1.90;;;19.40;53.70;;;;;;5034572;28;20042;-62
2020/12/25 05:14:06;;;;;;;3.60;2.38;;;19.40;53.70;;;;;;5031791;28;20029;-62
2020/12/25 05:16:31;;;;;;;3.20;2.17;;;19.40;53.80;;;;;;5042349;28;20545;-63
2020/12/25 05:18:57;;;;;;;2.58;1.95;;;19.40;53.80;;;;;;5028885;28;20037;-62
2020/12/25 05:21:22;;;;;;;2.35;1.80;;;19.40;54.20;;;;;;5028586;28;20029;-62
2020/12/25 05:23:48;;;;;;;2.70;2.17;;;19.40;54.10;;;;;;5036797;28;21375;-62
2020/12/25 05:26:14;;;;;;;1.75;1.40;;;19.30;53.80;;;;;;5030068;28;20033;-62
2020/12/25 05:28:44;;;;;;;2.42;2.00;;;19.40;54.10;;;;;;5043455;28;20033;-62
2020/12/25 05:31:10;;;;;;;2.47;1.90;;;19.30;54.00;;;;;;5025581;28;20650;-62
2020/12/25 05:33:36;;;;;;;1.73;1.48;;;19.30;54.00;;;;;;5039408;28;20059;-62
2020/12/25 05:36:07;;;;;;;2.20;1.92;;;19.30;54.10;;;;;;5033477;28;20621;-62
2020/12/25 05:38:32;;;;;;;3.22;1.50;;;19.30;54.20;;;;;;5026367;28;20407;-62
2020/12/25 05:41:01;;;;;;;2.50;1.73;;;19.30;53.90;;;;;;5039739;28;20029;-62
2020/12/25 05:43:26;;;;;;;2.03;1.70;;;19.30;54.00;;;;;;5030531;28;20034;-62
2020/12/25 05:45:52;;;;;;;1.88;1.60;;;19.30;54.10;;;;;;5041676;28;20094;-62
2020/12/25 05:48:17;;;;;;;3.60;1.95;;;19.30;53.90;;;;;;5032123;28;20095;-62
2020/12/25 05:50:43;;;;;;;3.05;1.63;;;19.30;54.00;;;;;;5032737;28;20041;-61
2020/12/25 05:53:08;;;;;;;1.80;1.33;;;19.30;53.90;;;;;;5030095;28;20064;-61
2020/12/25 05:55:34;;;;;;;2.42;1.40;;;19.30;53.90;;;;;;5011437;28;20065;-62
2020/12/25 05:58:00;;;;;;;2.80;1.85;;;19.30;53.80;;;;;;5040904;28;20446;-62
2020/12/25 06:00:26;;;;;;;2.30;1.60;;;19.30;53.90;;;;;;5027629;28;20124;-62
2020/12/25 06:02:53;;;;;;;1.98;1.38;;;19.30;53.70;;;;;;5026782;28;20117;-62
2020/12/25 06:05:19;;;;;;;2.42;1.58;;;19.30;53.70;;;;;;5038506;28;20555;-62
2020/12/25 06:07:55;;;;;;;2.47;2.28;;;19.30;53.60;;;;;;5035006;28;20040;-63
2020/12/25 06:10:28;;;;;;;1.75;1.30;;;19.30;53.60;;;;;;5029873;28;20091;-62
2020/12/25 06:12:54;;;;;;;1.63;1.30;;;19.20;53.40;;;;;;5039061;28;20037;-62
2020/12/25 06:15:27;;;;;;;1.38;1.17;;;19.30;53.40;;;;;;5037297;28;20572;-62
2020/12/25 06:18:22;;;;;;;2.80;1.73;;;19.20;53.40;;;;;;5027367;28;20124;-62
2020/12/25 06:21:12;;;;;;;1.80;1.52;;;19.30;53.40;;;;;;5040340;28;20486;-63
2020/12/25 06:23:40;;;;;;;1.88;1.60;;;19.20;53.30;;;;;;5037948;28;20029;-62
2020/12/25 06:26:06;;;;;;;1.40;1.30;;;19.20;53.40;;;;;;5026857;28;20493;-63
2020/12/25 06:28:32;;;;;;;0.85;0.80;;;19.20;53.30;;;;;;5029487;28;20644;-62
2020/12/25 06:30:57;;;;;;;2.40;1.27;;;19.20;53.40;;;;;;5024643;28;20479;-62
2020/12/25 06:33:29;;;;;;;1.77;1.15;;;19.20;53.50;;;;;;5038900;28;20036;-62
2020/12/25 06:35:58;;;;;;;1.80;1.10;;;19.20;53.40;;;;;;5034351;28;20232;-63
2020/12/25 06:38:24;;;;;;;1.73;1.15;;;19.20;53.50;;;;;;5038931;28;20123;-62
2020/12/25 06:40:50;;;;;;;1.77;1.10;;;19.10;53.50;;;;;;5022730;28;20139;-62
2020/12/25 06:43:16;;;;;;;1.67;1.30;;;19.10;53.60;;;;;;5027239;28;20036;-62
2020/12/25 06:45:41;;;;;;;2.65;1.40;;;19.10;53.60;;;;;;5024550;28;20038;-62
2020/12/25 06:48:15;;;;;;;3.38;1.40;;;19.20;53.50;;;;;;5041962;28;20124;-63
2020/12/25 06:50:45;;;;;;;11.60;2.00;;;19.20;53.40;;;;;;5027300;28;20038;-62
2020/12/25 06:53:10;;;;;;;13.43;1.80;;;19.20;53.40;;;;;;5028488;28;20029;-61
2020/12/25 06:55:43;;;;;;;11.65;2.22;;;19.20;53.50;;;;;;5036633;28;20569;-63
2020/12/25 06:58:12;;;;;;;13.82;2.88;;;19.20;53.40;;;;;;5025703;28;20408;-62
2020/12/25 07:00:40;;;;;;;13.95;3.45;;;19.20;53.50;;;;;;5034898;28;20029;-62
2020/12/25 07:03:12;;;;;;;11.50;3.20;;;19.20;53.60;;;;;;5040718;28;20439;-63
2020/12/25 07:05:47;;;;;;;16.83;3.92;;;19.20;53.80;;;;;;5039384;28;20052;-63
2020/12/25 07:08:26;;;;;;;13.02;3.00;;;19.30;54.00;;;;;;5037897;28;20041;-63
2020/12/25 07:10:59;;;;;;;11.98;2.55;;;19.30;54.40;;;;;;5026382;28;20095;-62
2020/12/25 07:13:24;;;;;;;16.17;3.60;;;19.30;54.90;;;;;;5040567;28;20366;-62
2020/12/25 07:15:50;;;;;;;14.75;3.60;;;19.20;55.00;;;;;;5035568;28;20727;-63
2020/12/25 07:18:15;;;;;;;9.48;3.13;;;19.20;55.30;;;;;;5042279;28;20037;-62
2020/12/25 07:20:41;;;;;;;10.93;3.13;;;19.30;55.50;;;;;;5043901;28;20404;-63
2020/12/25 07:23:06;;;;;;;9.68;3.30;;;19.30;55.60;;;;;;5038586;28;20041;-62
2020/12/25 07:25:39;;;;;;;10.40;3.00;;;19.30;55.80;;;;;;5035008;28;20036;-61
2020/12/25 07:28:05;;;;;;;11.98;2.90;;;19.40;56.20;;;;;;5034125;28;20120;-58
2020/12/25 07:30:30;;;;;;;15.48;3.00;;;19.40;57.00;;;;;;5036219;28;20124;-61
2020/12/25 07:32:56;;;;;;;16.95;3.88;;;19.50;57.20;;;;;;5027735;28;20061;-61
2020/12/25 07:35:22;;;;;;;11.07;3.35;;;19.50;57.70;;;;;;5045196;28;20052;-61
2020/12/25 07:37:54;;;;;;;11.70;3.28;;;19.50;57.80;;;;;;5034925;28;20721;-61
2020/12/25 07:40:19;;;;;;;18.25;3.63;;;19.50;57.90;;;;;;5034401;28;20045;-61
2020/12/25 07:42:45;;;;;;;11.43;4.03;;;19.50;57.80;;;;;;5034777;28;20380;-61
2020/12/25 07:45:10;;;;;;;17.17;4.15;;;19.40;57.90;;;;;;5033124;28;20033;-61
2020/12/25 07:47:39;;;;;;;7.72;3.53;;;19.40;57.90;;;;;;5025806;28;20488;-61
2020/12/25 07:50:04;;;;;;;10.05;3.78;;;19.40;57.80;;;;;;5027718;28;20644;-62
2020/12/25 07:52:30;;;;;;;14.75;4.18;;;19.40;57.60;;;;;;5040236;28;20056;-61
2020/12/25 07:54:55;;;;;;;10.27;3.60;;;19.30;57.40;;;;;;5045449;28;20044;-61
2020/12/25 07:57:22;;;;;;;8.50;2.90;;;19.40;57.40;;;;;;5046565;28;20029;-61
2020/12/25 07:59:47;;;;;;;10.70;3.40;;;19.30;57.10;;;;;;5033679;28;20437;-61
2020/12/25 08:02:13;;;;;;;9.77;4.63;;;19.30;57.00;;;;;;5035591;28;20127;-61
2020/12/25 08:04:41;;;;;;;13.63;5.07;;;19.40;57.70;;;;;;5035429;28;20123;-60
2020/12/25 08:07:08;;;;;;;14.45;5.60;;;19.40;58.40;;;;;;5038810;28;20523;-61
2020/12/25 08:09:34;;;;;;;12.85;5.20;;;19.40;58.40;;;;;;5027232;28;20053;-60
2020/12/25 08:11:59;;;;;;;10.55;5.25;;;19.40;58.10;;;;;;5025317;28;20061;-61
2020/12/25 08:14:25;;;;;;;15.77;5.78;;;19.30;58.10;;;;;;5042778;28;20658;-60
2020/12/25 08:16:50;;;;;;;13.90;6.03;;;19.30;58.00;;;;;;5040486;28;20033;-62
2020/12/25 08:19:17;;;;;;;11.77;5.93;;;19.30;57.90;;;;;;5031319;28;20037;-61
2020/12/25 08:21:43;;;;;;;20.27;7.93;;;19.30;58.90;;;;;;5033448;28;20064;-60
2020/12/25 08:24:09;;;;;;;19.27;9.18;;;19.40;59.70;;;;;;5032864;28;20040;-59
2020/12/25 08:26:36;;;;;;;21.52;9.00;;;19.40;60.10;;;;;;5041230;28;20040;-60
2020/12/25 08:29:02;;;;;;;25.23;9.73;;;19.50;60.20;;;;;;5027383;28;20403;-60
2020/12/25 08:31:35;;;;;;;23.45;10.65;;;19.40;59.90;;;;;;5044599;28;20128;-60
2020/12/25 08:34:00;;;;;;;27.33;12.60;;;19.40;59.80;;;;;;5029665;28;20500;-59
2020/12/25 08:36:26;;;;;;;32.33;16.00;;;19.40;59.50;;;;;;5031298;28;20040;-61
2020/12/25 08:38:51;;;;;;;36.22;16.98;;;19.40;59.40;;;;;;5033593;28;20030;-59
2020/12/25 08:41:17;;;;;;;41.10;18.70;;;19.40;59.10;;;;;;5031134;28;20026;-61
2020/12/25 08:43:42;;;;;;;39.25;18.50;;;19.40;59.10;;;;;;5037033;28;20032;-59
2020/12/25 08:46:08;;;;;;;44.80;17.98;;;19.30;59.20;;;;;;5040095;28;20029;-62
2020/12/25 08:48:34;;;;;;;36.85;17.05;;;19.20;59.20;;;;;;5026878;28;20037;-58
2020/12/25 08:51:10;;;;;;;42.15;17.67;;;19.30;59.30;;;;;;5044778;28;20060;-59
2020/12/25 08:53:36;;;;;;;33.30;16.58;;;19.20;59.10;;;;;;5026101;28;20029;-61
2020/12/25 08:56:15;;;;;;;33.35;15.30;;;19.20;59.10;;;;;;5036549;28;20059;-62
2020/12/25 08:58:40;;;;;;;35.20;16.10;;;19.20;59.10;;;;;;5036776;28;20079;-61
2020/12/25 09:01:06;;;;;;;31.92;17.08;;;19.20;59.00;;;;;;5042929;28;20118;-60
2020/12/25 09:03:42;;;;;;;29.90;14.32;;;19.20;58.90;;;;;;5034582;28;20037;-60
2020/12/25 09:06:11;;;;;;;30.45;14.68;;;19.30;58.80;;;;;;5045850;28;20029;-61
2020/12/25 09:08:36;;;;;;;32.05;13.90;;;19.20;58.70;;;;;;5029850;28;20037;-59
2020/12/25 09:11:09;;;;;;;29.38;13.68;;;19.20;58.50;;;;;;5027129;28;20086;-59
2020/12/25 09:13:35;;;;;;;27.77;14.98;;;19.30;58.50;;;;;;5031507;28;20037;-58
2020/12/25 09:16:01;;;;;;;24.02;14.20;;;19.30;58.40;;;;;;5037150;28;20045;-59
2020/12/25 09:18:26;;;;;;;24.73;12.93;;;19.20;58.30;;;;;;5033249;28;20112;-60
2020/12/25 09:20:52;;;;;;;23.98;13.13;;;19.20;58.20;;;;;;5025537;28;20723;-62
2020/12/25 09:23:17;;;;;;;25.48;12.70;;;19.20;58.10;;;;;;5041040;28;20040;-56
2020/12/25 09:25:42;;;;;;;24.50;11.82;;;19.20;58.00;;;;;;5034495;28;20041;-61
2020/12/25 09:28:08;;;;;;;26.25;12.00;;;19.20;57.80;;;;;;5026865;28;20543;-61
2020/12/25 09:30:34;;;;;;;18.83;11.02;;;19.20;57.80;;;;;;5041673;28;20051;-61
2020/12/25 09:32:59;;;;;;;23.15;10.40;;;19.20;57.60;;;;;;5029937;28;20033;-63
2020/12/25 09:35:24;;;;;;;20.92;10.25;;;19.20;57.40;;;;;;5029441;28;20033;-60
2020/12/25 09:37:50;;;;;;;19.02;9.90;;;19.20;57.20;;;;;;5035238;28;20060;-63
2020/12/25 09:40:15;;;;;;;17.15;11.18;;;19.30;57.00;;;;;;5036236;28;20555;-62
2020/12/25 09:42:41;;;;;;;17.98;10.02;;;19.30;57.00;;;;;;5035819;28;20056;-61
2020/12/25 09:45:06;;;;;;;18.77;10.00;;;19.20;56.90;;;;;;5033290;28;20038;-61
2020/12/25 09:47:32;;;;;;;16.58;9.07;;;19.20;56.80;;;;;;5042828;28;20771;-62
2020/12/25 09:49:57;;;;;;;19.80;9.45;;;19.20;56.70;;;;;;5032123;28;20041;-62
2020/12/25 09:52:23;;;;;;;18.52;10.52;;;19.30;56.60;;;;;;5033192;28;20029;-62
2020/12/25 09:54:48;;;;;;;25.00;13.38;;;19.30;56.60;;;;;;5026373;28;20117;-62
2020/12/25 09:57:14;;;;;;;36.60;18.77;;;19.20;56.40;;;;;;5044757;28;20037;-62
2020/12/25 09:59:39;;;;;;;44.15;24.40;;;19.30;56.30;;;;;;5051217;28;20045;-60
2020/12/25 10:02:05;;;;;;;50.63;25.92;;;19.30;56.20;;;;;;5029880;28;20029;-60
2020/12/25 10:04:31;;;;;;;63.58;30.17;;;19.30;56.60;;;;;;5044876;28;20025;-62
2020/12/25 10:06:57;;;;;;;53.35;29.20;;;19.30;56.80;;;;;;5044505;28;20064;-60
2020/12/25 10:09:22;;;;;;;49.70;27.95;;;19.30;56.80;;;;;;5044864;28;20064;-61
2020/12/25 10:11:48;;;;;;;59.22;27.30;;;19.30;56.80;;;;;;5028638;28;20029;-60
2020/12/25 10:14:14;;;;;;;52.33;29.20;;;19.30;56.80;;;;;;5029760;28;20045;-60
2020/12/25 10:16:39;;;;;;;54.30;27.65;;;19.30;56.80;;;;;;5035310;28;20040;-58
2020/12/25 10:19:05;;;;;;;56.15;29.80;;;19.30;57.00;;;;;;5038548;28;20045;-61
2020/12/25 10:21:31;;;;;;;56.33;27.17;;;19.30;57.20;;;;;;5039315;28;20036;-61
2020/12/25 10:23:56;;;;;;;49.75;25.42;;;19.40;58.20;;;;;;5036467;28;20053;-61
2020/12/25 10:26:22;;;;;;;45.65;22.95;;;19.40;58.80;;;;;;5036363;28;20738;-60
2020/12/25 10:28:47;;;;;;;41.60;21.88;;;19.40;59.20;;;;;;5036005;28;20049;-61
2020/12/25 10:31:13;;;;;;;41.58;21.35;;;19.40;58.90;;;;;;5030440;28;20079;-59
2020/12/25 10:33:38;;;;;;;38.08;20.15;;;19.30;59.10;;;;;;5040342;28;20079;-61
2020/12/25 10:36:04;;;;;;;46.00;20.92;;;19.20;59.00;;;;;;5023260;28;20083;-62
2020/12/25 10:38:29;;;;;;;41.92;20.13;;;19.20;58.90;;;;;;5039978;28;20025;-60
2020/12/25 10:40:55;;;;;;;39.67;21.05;;;19.20;58.90;;;;;;5032898;28;20045;-62
2020/12/25 10:43:20;;;;;;;38.13;22.00;;;19.20;58.80;;;;;;5032181;28;20040;-61
2020/12/25 10:45:46;;;;;;;36.50;21.08;;;19.10;58.60;;;;;;5026515;28;20120;-61
2020/12/25 10:48:11;;;;;;;46.15;21.35;;;19.10;58.50;;;;;;5044324;28;20025;-61
2020/12/25 10:50:37;;;;;;;36.20;21.23;;;19.20;58.50;;;;;;5027901;28;20050;-61
2020/12/25 10:53:02;;;;;;;39.60;20.60;;;19.20;58.50;;;;;;5031641;28;20033;-61
2020/12/25 10:55:28;;;;;;;36.50;19.52;;;19.20;58.40;;;;;;5036479;28;20487;-63
2020/12/25 10:57:53;;;;;;;37.58;19.60;;;19.20;58.30;;;;;;5033445;28;20123;-62
2020/12/25 11:00:19;;;;;;;34.15;18.67;;;19.20;58.20;;;;;;5048987;28;20089;-59
2020/12/25 11:02:44;;;;;;;35.67;17.15;;;19.20;58.20;;;;;;5051869;28;20816;-63
2020/12/25 11:05:13;;;;;;;30.77;17.60;;;19.20;58.20;;;;;;5027087;28;20034;-63
2020/12/25 11:07:38;;;;;;;30.00;17.23;;;19.20;58.20;;;;;;5034361;28;20083;-63
2020/12/25 11:10:04;;;;;;;27.38;16.05;;;19.20;58.10;;;;;;5044635;28;20083;-62
2020/12/25 11:12:29;;;;;;;28.13;16.45;;;19.20;58.00;;;;;;5030004;28;20033;-62
2020/12/25 11:14:55;;;;;;;31.13;16.23;;;19.20;58.00;;;;;;5035993;28;20466;-64
2020/12/25 11:17:20;;;;;;;26.60;14.45;;;19.20;57.90;;;;;;5033678;28;20032;-63
2020/12/25 11:19:46;;;;;;;28.75;18.42;;;19.20;57.80;;;;;;5044888;28;20044;-63
2020/12/25 11:22:13;;;;;;;34.13;19.27;;;19.20;58.00;;;;;;5028276;28;20447;-62
2020/12/25 11:24:42;;;;;;;33.03;20.63;;;19.20;57.90;;;;;;5045162;28;20025;-65
2020/12/25 11:27:08;;;;;;;55.60;31.83;;;19.20;58.20;;;;;;5033113;28;20048;-63
2020/12/25 11:29:33;;;;;;;73.53;39.10;;;19.30;59.30;;;;;;5034771;28;20041;-65
2020/12/25 11:31:59;;;;;;;65.55;37.53;;;19.40;60.20;;;;;;5039303;28;20033;-66
2020/12/25 11:34:24;;;;;;;61.13;36.92;;;19.40;60.60;;;;;;5030958;28;20037;-64
2020/12/25 11:36:50;;;;;;;59.47;32.78;;;19.50;61.20;;;;;;5028387;28;20037;-63
2020/12/25 11:39:15;;;;;;;54.72;31.33;;;19.50;62.20;;;;;;5040741;28;20033;-63
2020/12/25 11:41:41;;;;;;;46.42;28.50;;;19.50;62.70;;;;;;5036596;28;20052;-65
2020/12/25 11:44:06;;;;;;;40.95;24.60;;;19.60;62.60;;;;;;5035901;28;20432;-65
2020/12/25 11:46:32;;;;;;;39.35;24.52;;;19.60;62.70;;;;;;5045133;28;20048;-64
2020/12/25 11:48:57;;;;;;;38.45;22.85;;;19.60;62.80;;;;;;5025596;28;20041;-64
2020/12/25 11:51:24;;;;;;;36.90;23.10;;;19.60;62.90;;;;;;5035190;28;20399;-64
2020/12/25 11:53:50;;;;;;;36.10;21.17;;;19.60;63.20;;;;;;5037917;28;20095;-64
2020/12/25 11:56:20;;;;;;;31.85;19.08;;;19.60;63.60;;;;;;5039686;28;20065;-63
2020/12/25 11:58:45;;;;;;;31.60;19.33;;;19.60;63.60;;;;;;5035854;28;20038;-63
2020/12/25 12:01:11;;;;;;;35.05;18.17;;;19.60;63.80;;;;;;5032525;28;20163;-64
2020/12/25 12:03:36;;;;;;;33.10;18.75;;;19.60;63.30;;;;;;5042118;28;20496;-63
2020/12/25 12:06:03;;;;;;;29.17;17.30;;;19.50;62.80;;;;;;5040435;28;20041;-63
2020/12/25 12:08:29;;;;;;;31.98;17.73;;;19.40;62.70;;;;;;5044078;28;20025;-63
2020/12/25 12:10:54;;;;;;;30.67;19.05;;;19.40;62.70;;;;;;5032629;28;20128;-63
2020/12/25 12:13:20;;;;;;;29.02;17.85;;;19.30;63.00;;;;;;5037041;28;20042;-63
2020/12/25 12:15:45;;;;;;;25.45;16.95;;;19.30;62.70;;;;;;5037715;28;20091;-64
2020/12/25 12:18:11;;;;;;;26.55;18.08;;;19.30;62.50;;;;;;5038501;28;20033;-63
2020/12/25 12:20:36;;;;;;;27.25;16.88;;;19.30;62.40;;;;;;5030716;28;20095;-63
2020/12/25 12:23:02;;;;;;;22.65;15.32;;;19.30;62.10;;;;;;5033219;28;20087;-63
2020/12/25 12:25:27;;;;;;;28.52;16.65;;;19.30;61.80;;;;;;5028692;28;20744;-64
2020/12/25 12:27:53;;;;;;;28.23;16.00;;;19.30;61.50;;;;;;5027045;28;20117;-62
2020/12/25 12:30:19;;;;;;;38.75;20.77;;;19.40;61.50;;;;;;5033912;28;20041;-63